Time;durP1;ratioP1;P1;durP2;ratioP2;P2;SDS_P1;SDS_P2;PMS_P1;PMS_P2;Temp;Humidity;BMP_temperature;BMP_pressure;BME280_temperature;BME280_humidity;BME280_pressure;Samples;Min_cycle;Max_cycle;Signal;HPM_P1;HPM_P2
2022/03/15 00:00:40;;;;;;;10.25;4.95;;;;;;;-3.49;86.76;92357.50;5031094;28;20034;-69
2022/03/15 00:03:06;;;;;;;11.60;5.53;;;;;;;-3.52;86.50;92352.69;5013059;28;20431;-69
2022/03/15 00:05:31;;;;;;;8.90;3.85;;;;;;;-3.53;85.67;92351.88;5030859;28;20067;-69
2022/03/15 00:07:57;;;;;;;7.55;4.45;;;;;;;-3.54;85.41;92342.47;5030967;28;20021;-69
2022/03/15 00:10:22;;;;;;;12.98;5.55;;;;;;;-3.57;85.29;92345.47;5030866;28;20083;-69
2022/03/15 00:12:48;;;;;;;11.82;5.13;;;;;;;-3.53;84.34;92345.88;5030708;28;20032;-69
2022/03/15 00:15:14;;;;;;;7.78;4.30;;;;;;;-3.59;83.52;92326.66;5030848;28;20050;-69
2022/03/15 00:17:44;;;;;;;8.88;4.00;;;;;;;-3.52;83.09;92335.28;5030774;28;20038;-69
2022/03/15 00:20:18;;;;;;;7.25;4.15;;;;;;;-3.53;82.40;92330.28;5030724;28;20399;-69
2022/03/15 00:22:44;;;;;;;8.73;4.63;;;;;;;-3.55;82.54;92327.06;5030655;28;20037;-69
2022/03/15 00:25:11;;;;;;;7.88;4.05;;;;;;;-3.55;82.75;92320.06;5030735;28;20046;-69
2022/03/15 00:27:37;;;;;;;8.18;4.38;;;;;;;-3.61;82.89;92323.44;5030731;28;20112;-70
2022/03/15 00:30:06;;;;;;;7.05;3.95;;;;;;;-3.63;82.79;92320.19;5030562;28;20040;-70
2022/03/15 00:32:32;;;;;;;6.75;3.95;;;;;;;-3.68;83.15;92323.38;5030527;28;20491;-70
2022/03/15 00:34:58;;;;;;;5.20;3.72;;;;;;;-3.71;83.15;92320.34;5030795;28;20034;-69
2022/03/15 00:37:23;;;;;;;8.18;3.90;;;;;;;-3.70;83.09;92327.16;5030632;28;20613;-69
2022/03/15 00:39:49;;;;;;;7.20;4.18;;;;;;;-3.70;82.87;92316.75;5030886;28;20102;-70
2022/03/15 00:42:15;;;;;;;8.77;4.90;;;;;;;-3.69;82.45;92320.97;5030494;28;20037;-69
2022/03/15 00:44:40;;;;;;;8.55;4.13;;;;;;;-3.67;82.02;92324.97;5030587;28;20106;-69
2022/03/15 00:47:06;;;;;;;10.68;4.40;;;;;;;-3.76;81.94;92326.13;5030610;28;20037;-69
2022/03/15 00:49:32;;;;;;;10.70;4.82;;;;;;;-3.78;82.13;92330.72;5030576;28;20352;-69
2022/03/15 00:51:58;;;;;;;9.60;5.22;;;;;;;-3.82;82.31;92332.06;5030461;28;20025;-69
2022/03/15 00:54:23;;;;;;;8.27;4.45;;;;;;;-3.83;82.11;92340.84;5030366;28;20036;-69
2022/03/15 00:56:51;;;;;;;8.77;4.63;;;;;;;-3.89;82.73;92335.59;5030442;28;20041;-69
2022/03/15 00:59:17;;;;;;;9.50;4.57;;;;;;;-3.99;83.74;92344.50;5032960;28;20477;-69
2022/03/15 01:01:43;;;;;;;12.30;5.22;;;;;;;-4.02;84.14;92337.09;5034209;28;20097;-69
2022/03/15 01:04:08;;;;;;;8.20;4.47;;;;;;;-4.06;84.44;92335.06;5034163;28;20124;-68
2022/03/15 01:06:38;;;;;;;6.80;4.25;;;;;;;-4.00;84.14;92334.31;5034060;28;20041;-69
2022/03/15 01:09:04;;;;;;;7.30;4.25;;;;;;;-3.95;83.82;92337.13;5034099;28;20116;-69
2022/03/15 01:11:30;;;;;;;9.63;4.78;;;;;;;-3.90;83.85;92327.00;5034278;28;20065;-69
2022/03/15 01:13:56;;;;;;;9.43;4.40;;;;;;;-3.95;84.45;92322.34;5033786;28;20447;-69
2022/03/15 01:16:21;;;;;;;10.32;5.00;;;;;;;-3.91;85.68;92333.19;5033958;28;20136;-69
2022/03/15 01:18:47;;;;;;;8.45;4.65;;;;;;;-3.90;86.39;92334.00;5033978;28;20028;-69
2022/03/15 01:21:15;;;;;;;8.43;4.35;;;;;;;-3.85;85.65;92327.25;5033914;28;20022;-69
2022/03/15 01:23:41;;;;;;;7.45;4.53;;;;;;;-3.86;84.54;92314.44;5033664;28;20057;-68
2022/03/15 01:26:07;;;;;;;8.27;3.88;;;;;;;-3.73;82.81;92319.75;5033720;28;20031;-69
2022/03/15 01:28:33;;;;;;;7.22;4.18;;;;;;;-3.79;81.57;92295.28;5033859;28;20116;-69
2022/03/15 01:30:59;;;;;;;6.65;4.30;;;;;;;-3.77;81.16;92297.72;5033706;28;20165;-69
2022/03/15 01:33:24;;;;;;;6.22;3.78;;;;;;;-3.77;81.04;92298.50;5033667;28;20042;-69
2022/03/15 01:35:50;;;;;;;7.70;4.05;;;;;;;-3.68;80.31;92301.75;5033598;28;20457;-69
2022/03/15 01:38:16;;;;;;;8.38;3.70;;;;;;;-3.68;79.57;92304.38;5033501;28;20032;-69
2022/03/15 01:40:41;;;;;;;9.40;3.50;;;;;;;-3.71;78.78;92308.16;5033492;28;20112;-69
2022/03/15 01:43:07;;;;;;;6.45;3.55;;;;;;;-3.72;78.45;92316.16;5033684;28;20022;-68
2022/03/15 01:45:35;;;;;;;5.00;3.33;;;;;;;-3.85;78.78;92316.03;5033438;28;20483;-69
2022/03/15 01:48:03;;;;;;;5.13;2.97;;;;;;;-3.82;78.05;92328.66;5033444;28;20029;-68
2022/03/15 01:50:28;;;;;;;6.22;3.70;;;;;;;-3.95;77.73;92311.94;5033178;28;20060;-69
2022/03/15 01:52:54;;;;;;;7.70;4.03;;;;;;;-4.02;78.02;92311.09;5033182;28;20483;-68
2022/03/15 01:55:19;;;;;;;9.23;3.67;;;;;;;-4.03;77.54;92312.09;5033292;28;20030;-69
2022/03/15 01:57:45;;;;;;;8.38;3.97;;;;;;;-4.06;77.18;92319.47;5033181;28;20097;-68
2022/03/15 02:00:11;;;;;;;7.47;4.00;;;;;;;-4.10;77.00;92321.66;5033288;28;20504;-69
2022/03/15 02:02:36;;;;;;;7.10;4.03;;;;;;;-4.12;76.77;92318.41;5033044;28;20025;-69
2022/03/15 02:05:02;;;;;;;6.15;3.42;;;;;;;-4.23;77.28;92313.72;5032815;28;20046;-68
2022/03/15 02:07:27;;;;;;;7.85;4.20;;;;;;;-4.28;77.63;92303.88;5033096;28;20026;-69
2022/03/15 02:09:53;;;;;;;8.77;3.42;;;;;;;-4.23;77.10;92327.53;5032807;28;20125;-68
2022/03/15 02:12:19;;;;;;;6.43;3.25;;;;;;;-4.17;76.22;92325.97;5014990;28;20499;-68
2022/03/15 02:14:44;;;;;;;5.28;3.33;;;;;;;-4.18;75.18;92332.16;5032978;28;20396;-68
2022/03/15 02:17:10;;;;;;;6.95;3.10;;;;;;;-4.20;75.22;92338.53;5032705;28;20497;-67
2022/03/15 02:19:36;;;;;;;5.82;3.08;;;;;;;-4.22;75.42;92333.53;5032974;28;20027;-68
2022/03/15 02:22:02;;;;;;;4.63;2.67;;;;;;;-4.31;76.15;92342.41;5032613;28;20491;-68
2022/03/15 02:24:28;;;;;;;4.80;3.38;;;;;;;-4.46;76.42;92328.66;5032746;28;20037;-68
2022/03/15 02:26:53;;;;;;;5.68;3.28;;;;;;;-4.48;77.17;92334.03;5032742;28;20038;-69
2022/03/15 02:29:20;;;;;;;6.13;3.53;;;;;;;-4.52;77.36;92323.22;5045929;28;20025;-68
2022/03/15 02:31:45;;;;;;;4.78;2.88;;;;;;;-4.42;77.15;92327.31;5052327;28;20025;-68
2022/03/15 02:34:11;;;;;;;6.10;3.40;;;;;;;-4.36;76.96;92326.59;5052274;28;20033;-68
2022/03/15 02:36:36;;;;;;;7.38;3.67;;;;;;;-4.34;76.85;92325.41;5052285;28;20025;-68
2022/03/15 02:39:02;;;;;;;5.85;3.60;;;;;;;-4.32;77.12;92325.22;5052278;28;20032;-68
2022/03/15 02:41:28;;;;;;;6.38;3.10;;;;;;;-4.34;77.11;92322.81;5052273;28;20086;-69
2022/03/15 02:43:56;;;;;;;6.13;3.05;;;;;;;-4.30;77.28;92318.03;5052209;28;20407;-68
2022/03/15 02:46:26;;;;;;;7.50;3.47;;;;;;;-4.32;77.30;92309.63;5052113;28;20494;-69
2022/03/15 02:48:52;;;;;;;6.03;3.03;;;;;;;-4.26;76.74;92314.91;5052225;28;20087;-69
2022/03/15 02:51:17;;;;;;;5.22;3.25;;;;;;;-4.31;76.41;92304.25;5052064;28;20495;-69
2022/03/15 02:53:43;;;;;;;9.20;4.25;;;;;;;-4.33;76.02;92292.44;5051954;28;20028;-69
2022/03/15 02:56:11;;;;;;;5.25;3.13;;;;;;;-4.43;75.82;92289.34;5052083;28;20112;-69
2022/03/15 02:58:41;;;;;;;6.72;4.03;;;;;;;-4.46;76.20;92297.50;5051973;28;20479;-69
2022/03/15 03:01:08;;;;;;;4.90;3.13;;;;;;;-4.45;75.75;92296.50;5051992;28;20487;-69
2022/03/15 03:03:34;;;;;;;6.43;2.47;;;;;;;-4.41;75.55;92289.97;5187434;22;20049;-64
2022/03/15 03:06:00;;;;;;;7.65;3.10;;;;;;;-4.44;74.98;92296.31;5032450;28;20029;-64
2022/03/15 03:08:25;;;;;;;6.40;2.95;;;;;;;-4.56;75.46;92298.63;5032531;28;20053;-64
2022/03/15 03:10:52;;;;;;;3.47;2.45;;;;;;;-4.56;75.17;92293.44;5032040;28;20041;-64
2022/03/15 03:13:18;;;;;;;5.25;2.90;;;;;;;-4.64;75.27;92298.72;5032114;28;20022;-64
2022/03/15 03:15:44;;;;;;;7.05;3.35;;;;;;;-4.69;74.93;92293.28;5032037;28;20045;-64
2022/03/15 03:18:09;;;;;;;6.35;3.63;;;;;;;-4.74;75.10;92303.41;5031972;28;20037;-65
2022/03/15 03:20:35;;;;;;;5.25;2.45;;;;;;;-4.82;75.34;92304.31;5031620;28;20159;-64
2022/03/15 03:23:01;;;;;;;4.78;3.22;;;;;;;-4.83;75.46;92297.53;5031670;28;20407;-64
2022/03/15 03:25:28;;;;;;;4.28;2.80;;;;;;;-4.79;75.31;92303.16;5031942;28;20094;-65
2022/03/15 03:27:53;;;;;;;6.57;3.63;;;;;;;-4.80;75.44;92304.13;5031870;28;20068;-64
2022/03/15 03:30:19;;;;;;;6.70;3.78;;;;;;;-4.64;74.70;92298.72;5031895;28;20037;-64
2022/03/15 03:32:45;;;;;;;4.80;2.97;;;;;;;-4.65;74.23;92291.13;5031611;28;20120;-64
2022/03/15 03:35:11;;;;;;;7.00;3.50;;;;;;;-4.63;74.50;92295.13;5031695;28;20048;-64
2022/03/15 03:37:36;;;;;;;3.55;2.45;;;;;;;-4.74;74.74;92284.44;5031751;28;20166;-64
2022/03/15 03:40:07;;;;;;;4.93;2.90;;;;;;;-4.79;75.33;92287.56;5031638;28;20033;-64
2022/03/15 03:42:32;;;;;;;4.10;2.65;;;;;;;-4.94;75.86;92279.81;5031531;28;20040;-64
2022/03/15 03:44:58;;;;;;;4.18;2.80;;;;;;;-4.98;76.55;92277.78;5013761;28;20104;-65
2022/03/15 03:47:23;;;;;;;5.63;3.28;;;;;;;-5.02;76.44;92276.56;5031573;28;20048;-64
2022/03/15 03:49:49;;;;;;;8.80;3.53;;;;;;;-4.96;75.99;92273.22;5013786;28;20045;-64
2022/03/15 03:52:15;;;;;;;10.82;4.45;;;;;;;-5.08;76.17;92272.88;5031305;28;20526;-64
2022/03/15 03:54:40;;;;;;;6.40;3.20;;;;;;;-5.05;76.31;92284.69;5031282;28;20022;-64
2022/03/15 03:57:05;;;;;;;3.55;2.28;;;;;;;-4.99;76.05;92273.59;5031674;28;20108;-64
2022/03/15 03:59:31;;;;;;;8.98;3.90;;;;;;;-5.17;76.27;92248.84;5031451;28;20032;-64
2022/03/15 04:01:56;;;;;;;17.15;5.03;;;;;;;-5.12;76.38;92266.44;5038726;28;20026;-64
2022/03/15 04:04:22;;;;;;;12.15;4.30;;;;;;;-5.09;76.70;92271.25;5037340;28;20561;-64
2022/03/15 04:06:47;;;;;;;7.95;3.70;;;;;;;-5.09;76.77;92271.25;5031422;28;20030;-64
2022/03/15 04:09:13;;;;;;;6.32;3.25;;;;;;;-5.12;76.63;92272.44;5031327;28;20042;-64
2022/03/15 04:11:40;;;;;;;8.50;3.60;;;;;;;-5.15;76.70;92265.03;5031942;28;20052;-64
2022/03/15 04:14:07;;;;;;;3.70;2.63;;;;;;;-5.11;76.79;92278.44;5031062;28;20479;-65
2022/03/15 04:16:32;;;;;;;7.20;3.28;;;;;;;-5.20;77.54;92279.53;5031228;28;20033;-64
2022/03/15 04:18:58;;;;;;;4.80;2.88;;;;;;;-5.24;77.79;92273.09;5031177;28;20701;-64
2022/03/15 04:21:24;;;;;;;6.32;3.30;;;;;;;-5.27;78.06;92278.63;5031052;28;20030;-63
2022/03/15 04:23:54;;;;;;;7.15;3.65;;;;;;;-5.37;78.36;92284.09;5031045;28;20029;-64
2022/03/15 04:26:23;;;;;;;6.10;3.75;;;;;;;-5.40;78.62;92279.25;5031080;28;20029;-64
2022/03/15 04:28:49;;;;;;;6.05;4.07;;;;;;;-5.39;79.00;92290.44;5013305;28;20060;-64
2022/03/15 04:31:14;;;;;;;9.15;4.00;;;;;;;-5.36;78.87;92280.53;5031047;28;20130;-63
2022/03/15 04:33:40;;;;;;;13.45;4.88;;;;;;;-5.37;78.62;92291.88;5033884;28;20462;-65
2022/03/15 04:36:06;;;;;;;11.27;5.75;;;;;;;-5.35;78.76;92297.69;5035048;28;20109;-64
2022/03/15 04:38:32;;;;;;;9.52;4.97;;;;;;;-5.35;79.01;92296.91;5035279;28;20073;-64
2022/03/15 04:40:58;;;;;;;7.47;4.03;;;;;;;-5.40;77.93;92304.38;5034950;28;20096;-64
2022/03/15 04:43:24;;;;;;;6.97;5.10;;;;;;;-5.58;78.26;92320.31;5035084;28;20065;-64
2022/03/15 04:45:50;;;;;;;6.43;4.00;;;;;;;-5.66;79.53;92318.63;5034899;28;20529;-64
2022/03/15 04:48:18;;;;;;;10.90;6.03;;;;;;;-5.67;84.55;92334.34;5034747;28;20057;-64
2022/03/15 04:50:44;;;;;;;13.50;6.25;;;;;;;-5.65;94.03;92330.59;5035126;28;20088;-64
2022/03/15 04:53:09;;;;;;;11.15;6.15;;;;;;;-5.70;100.00;92340.66;5034126;28;20533;-65
2022/03/15 04:55:35;;;;;;;9.07;5.38;;;;;;;-5.70;100.00;92353.63;5034582;28;20469;-64
2022/03/15 04:58:00;;;;;;;16.35;7.95;;;;;;;-5.75;100.00;92355.94;5034434;28;20114;-65
2022/03/15 05:00:26;;;;;;;19.23;7.80;;;;;;;-5.85;100.00;92340.63;5034550;28;20101;-64
2022/03/15 05:02:51;;;;;;;19.33;9.75;;;;;;;-5.78;100.00;92354.53;5016429;28;20415;-64
2022/03/15 05:05:17;;;;;;;20.48;9.10;;;;;;;-5.69;100.00;92344.88;5034521;28;20065;-63
2022/03/15 05:07:42;;;;;;;16.48;8.50;;;;;;;-4.79;100.00;92355.06;5034353;28;20029;-64
2022/03/15 05:12:52;;;;;;;25.13;12.75;;;;;;;-1.36;89.66;92340.59;5034156;28;20039;-65
2022/03/15 05:15:18;;;;;;;30.38;11.82;;;;;;;-0.10;71.43;92345.47;5034261;28;20030;-65
2022/03/15 05:17:43;;;;;;;29.23;9.30;;;;;;;0.55;62.41;92336.38;5034217;28;20033;-65
2022/03/15 05:20:10;;;;;;;23.52;9.02;;;;;;;0.90;57.83;92352.41;5034125;28;20049;-65
2022/03/15 05:22:36;;;;;;;24.90;9.77;;;;;;;0.33;58.12;92342.19;5033876;28;20026;-65
2022/03/15 05:25:01;;;;;;;30.00;11.90;;;;;;;1.59;54.78;92339.22;5034347;28;20100;-65
2022/03/15 05:27:27;;;;;;;44.85;17.25;;;;;;;3.37;50.08;92338.41;5034003;28;20495;-65
2022/03/15 05:29:53;;;;;;;22.08;6.30;;;;;;;3.55;46.48;92338.28;5033949;28;20510;-65
2022/03/15 05:32:19;;;;;;;11.40;5.22;;;;;;;1.41;48.98;92338.19;5033850;28;20034;-66
2022/03/15 05:34:45;;;;;;;10.88;3.80;;;;;;;2.80;47.05;92346.03;5033839;28;20037;-66
2022/03/15 05:37:10;;;;;;;10.07;4.20;;;;;;;3.87;45.09;92336.03;5033887;28;20029;-65
2022/03/15 05:39:35;;;;;;;19.92;10.70;;;;;;;6.49;41.56;92336.09;5033845;28;20113;-65
2022/03/15 05:42:02;;;;;;;18.58;9.13;;;;;;;7.53;38.99;92337.47;5033589;28;20025;-64
2022/03/15 05:44:27;;;;;;;22.83;12.90;;;;;;;8.88;36.99;92326.91;5017446;28;20033;-65
2022/03/15 05:46:54;;;;;;;32.83;14.68;;;;;;;9.43;35.69;92336.75;5013720;28;20033;-65
2022/03/15 05:49:19;;;;;;;36.33;16.13;;;;;;;8.80;35.47;92338.03;5013387;28;20090;-64
2022/03/15 05:51:45;;;;;;;14.75;8.18;;;;;;;10.12;33.79;92337.97;5013558;28;20029;-65
2022/03/15 05:54:10;;;;;;;12.73;5.95;;;;;;;8.72;34.89;92342.00;5013650;28;20068;-64
2022/03/15 05:56:39;;;;;;;18.23;7.55;;;;;;;8.70;35.35;92336.19;5014416;28;20041;-65
2022/03/15 05:59:05;;;;;;;20.33;8.45;;;;;;;7.89;36.13;92323.41;5013502;28;20030;-64
2022/03/15 06:01:30;;;;;;;20.27;8.80;;;;;;;7.18;37.32;92338.81;5013351;28;20500;-63
2022/03/15 06:03:56;;;;;;;21.90;11.38;;;;;;;8.39;36.30;92328.13;5012693;28;20042;-64
2022/03/15 06:06:21;;;;;;;28.05;10.48;;;;;;;9.36;34.93;92325.59;5013269;28;20517;-64
2022/03/15 06:08:48;;;;;;;16.08;7.90;;;;;;;9.27;34.62;92332.50;5013184;28;20059;-66
2022/03/15 06:11:16;;;;;;;16.88;7.20;;;;;;;9.48;34.44;92330.66;5013132;28;20041;-66
2022/03/15 06:13:41;;;;;;;22.40;6.72;;;;;;;8.85;34.67;92340.72;5012931;28;20049;-67
2022/03/15 06:16:07;;;;;;;15.02;7.13;;;;;;;9.60;34.42;92341.78;5015822;28;20507;-66
2022/03/15 06:18:33;;;;;;;18.98;8.35;;;;;;;10.20;33.35;92340.06;5032984;28;20033;-66
2022/03/15 06:20:58;;;;;;;13.63;7.35;;;;;;;10.11;32.98;92339.03;5032867;28;20041;-67
2022/03/15 06:23:24;;;;;;;18.85;8.23;;;;;;;9.45;34.01;92334.63;5032798;28;20029;-66
2022/03/15 06:25:50;;;;;;;11.32;6.93;;;;;;;10.24;33.05;92341.13;5032775;28;20034;-67
2022/03/15 06:28:16;;;;;;;16.58;7.63;;;;;;;9.22;33.88;92341.28;5032877;28;20593;-66
2022/03/15 06:30:41;;;;;;;20.10;10.57;;;;;;;10.66;32.83;92332.72;5032634;28;20025;-67
2022/03/15 06:33:07;;;;;;;11.35;6.63;;;;;;;12.52;30.64;92329.81;5032505;28;20056;-66
2022/03/15 06:35:33;;;;;;;17.00;8.70;;;;;;;13.24;29.81;92332.34;5032569;28;20442;-67
2022/03/15 06:37:59;;;;;;;15.45;8.10;;;;;;;14.20;28.70;92341.50;5032527;28;20052;-67
2022/03/15 06:40:26;;;;;;;14.52;9.65;;;;;;;14.55;28.68;92332.00;5032486;28;20502;-67
2022/03/15 06:42:55;;;;;;;18.00;11.45;;;;;;;16.20;27.38;92328.81;5031920;28;20024;-67
2022/03/15 06:45:23;;;;;;;19.33;11.88;;;;;;;15.53;27.85;92342.25;5032416;28;20111;-67
2022/03/15 06:47:48;;;;;;;24.30;13.70;;;;;;;15.24;28.02;92342.63;5032315;28;20038;-67
2022/03/15 06:50:14;;;;;;;16.73;11.38;;;;;;;14.60;28.42;92339.94;5032317;28;20038;-67
2022/03/15 06:52:44;;;;;;;27.52;15.85;;;;;;;15.19;28.48;92340.06;5031964;28;20486;-67
2022/03/15 06:55:11;;;;;;;35.50;21.27;;;;;;;16.77;27.16;92331.59;5031717;28;20083;-65
2022/03/15 06:57:37;;;;;;;42.58;17.85;;;;;;;17.87;25.81;92333.97;5031301;28;20414;-65
2022/03/15 07:00:08;;;;;;;20.55;11.25;;;;;;;17.76;25.73;92343.47;5032336;28;20467;-65
2022/03/15 07:02:33;;;;;;;17.23;9.90;;;;;;;18.46;25.41;92334.16;5031470;28;20060;-65
2022/03/15 07:04:59;;;;;;;19.60;11.48;;;;;;;18.93;24.93;92346.81;5031989;28;20045;-65
2022/03/15 07:07:24;;;;;;;18.80;10.18;;;;;;;19.02;24.89;92345.66;5032243;28;20523;-65
2022/03/15 07:09:50;;;;;;;11.73;7.00;;;;;;;19.17;24.50;92336.22;5014232;28;20143;-65
2022/03/15 07:12:15;;;;;;;20.05;10.10;;;;;;;18.59;25.03;92335.03;5031807;28;20033;-65
2022/03/15 07:15:06;;;;;;;26.98;10.68;;;;;;;19.10;24.78;92333.28;5031886;28;20038;-66
2022/03/15 07:18:09;;;;;;;11.35;7.22;;;;;;;19.27;24.25;92340.47;5088634;27;20393;-65
2022/03/15 07:20:34;;;;;;;17.25;9.27;;;;;;;19.17;24.90;92338.94;5083732;28;20044;-65
2022/03/15 07:23:00;;;;;;;18.98;8.35;;;;;;;21.17;23.62;92339.44;5088607;28;20035;-65
2022/03/15 07:25:26;;;;;;;13.90;7.43;;;;;;;22.11;22.74;92344.63;5088490;28;20523;-65
2022/03/15 07:27:51;;;;;;;15.75;7.80;;;;;;;22.33;22.67;92337.06;5088422;28;20032;-65
2022/03/15 07:30:17;;;;;;;16.35;7.07;;;;;;;22.44;22.32;92338.16;5088227;28;20416;-65
2022/03/15 07:32:43;;;;;;;23.10;9.23;;;;;;;22.85;22.49;92334.19;5087966;28;20036;-66
2022/03/15 07:35:09;;;;;;;13.82;9.20;;;;;;;23.37;21.87;92354.06;5088042;28;20119;-65
2022/03/15 07:37:34;;;;;;;18.83;10.77;;;;;;;24.77;21.06;92351.97;5088115;28;20090;-66
2022/03/15 07:40:00;;;;;;;16.75;7.45;;;;;;;25.19;20.59;92364.78;5088061;28;20456;-66
2022/03/15 07:42:26;;;;;;;10.43;6.00;;;;;;;24.89;20.17;92361.09;5088086;28;20036;-66
2022/03/15 07:44:52;;;;;;;7.88;5.78;;;;;;;24.42;20.58;92364.91;5088084;28;20040;-66
2022/03/15 07:47:17;;;;;;;12.07;5.25;;;;;;;22.68;22.15;92364.34;5088024;28;20036;-66
2022/03/15 07:49:43;;;;;;;13.25;5.85;;;;;;;22.67;21.58;92357.34;5087856;28;20041;-66
2022/03/15 07:52:10;;;;;;;11.52;5.63;;;;;;;23.18;21.92;92357.47;5087797;28;20498;-66
2022/03/15 07:54:35;;;;;;;12.15;7.15;;;;;;;21.58;23.62;92364.69;5087712;28;20043;-66
2022/03/15 07:57:02;;;;;;;14.77;6.25;;;;;;;22.56;22.67;92361.69;5087721;28;20032;-66
2022/03/15 07:59:28;;;;;;;13.73;8.85;;;;;;;23.28;22.37;92362.38;5087860;28;20074;-66
2022/03/15 08:01:53;;;;;;;18.33;9.30;;;;;;;22.71;22.65;92361.72;5088012;28;20079;-66
2022/03/15 08:04:19;;;;;;;21.05;9.65;;;;;;;24.31;21.30;92366.66;5087741;28;20040;-66
2022/03/15 08:06:44;;;;;;;26.05;15.48;;;;;;;21.29;23.32;92360.31;5087587;28;20524;-66
2022/03/15 08:09:11;;;;;;;27.30;13.95;;;;;;;22.29;23.55;92363.31;5087648;28;20043;-66
2022/03/15 08:11:36;;;;;;;35.28;19.15;;;;;;;21.47;22.72;92358.97;5087507;28;20042;-66
2022/03/15 08:14:02;;;;;;;15.55;8.00;;;;;;;19.37;24.10;92351.66;5087524;28;20037;-66
2022/03/15 08:16:27;;;;;;;20.95;13.00;;;;;;;16.80;26.38;92352.47;5087225;28;20056;-66
2022/03/15 08:18:54;;;;;;;27.27;17.02;;;;;;;16.98;28.63;92361.38;5087384;28;20040;-66
2022/03/15 08:21:22;;;;;;;15.77;10.18;;;;;;;17.07;26.98;92346.06;5087421;28;20115;-66
2022/03/15 08:23:48;;;;;;;27.00;13.88;;;;;;;17.21;26.93;92349.44;5087246;28;20036;-65
2022/03/15 08:26:15;;;;;;;11.25;6.07;;;;;;;16.08;27.43;92342.00;5087236;28;20162;-67
2022/03/15 08:28:41;;;;;;;39.75;21.35;;;;;;;16.45;27.20;92341.56;5075719;28;20044;-66
2022/03/15 08:31:08;;;;;;;13.80;8.75;;;;;;;16.50;26.00;92342.53;5073740;28;20047;-67
2022/03/15 08:33:34;;;;;;;11.77;6.95;;;;;;;16.80;27.06;92338.25;5073691;28;20094;-66
2022/03/15 08:36:00;;;;;;;16.30;5.20;;;;;;;17.82;24.85;92336.78;5073509;28;20460;-67
2022/03/15 08:38:26;;;;;;;6.22;5.18;;;;;;;18.59;25.90;92342.34;5073818;28;20028;-66
2022/03/15 08:40:52;;;;;;;15.65;12.30;;;;;;;18.47;25.43;92319.56;5073619;28;20425;-67
2022/03/15 08:43:17;;;;;;;9.18;4.82;;;;;;;18.44;25.51;92333.66;5073443;28;20107;-67
2022/03/15 08:45:43;;;;;;;16.33;6.82;;;;;;;18.59;24.54;92331.56;5073533;28;20878;-67
2022/03/15 08:48:08;;;;;;;6.75;4.53;;;;;;;18.99;24.52;92326.66;5073418;28;20049;-67
2022/03/15 08:50:34;;;;;;;7.55;5.78;;;;;;;20.04;23.76;92331.81;5073478;28;20037;-67
2022/03/15 08:53:00;;;;;;;12.30;7.00;;;;;;;20.68;24.16;92329.75;5073321;28;20037;-68
2022/03/15 08:55:29;;;;;;;11.43;6.78;;;;;;;21.44;23.07;92331.75;5073199;28;20043;-67
2022/03/15 08:57:55;;;;;;;12.40;7.10;;;;;;;21.90;24.57;92333.13;5073172;28;20043;-66
2022/03/15 09:00:21;;;;;;;8.75;6.05;;;;;;;22.63;21.65;92326.63;5073276;28;20036;-67
2022/03/15 09:02:47;;;;;;;12.60;5.50;;;;;;;21.64;23.16;92328.13;5073138;28;20045;-66
2022/03/15 09:05:13;;;;;;;11.95;5.43;;;;;;;22.06;22.80;92308.81;5071748;28;20555;-66
2022/03/15 09:07:40;;;;;;;7.40;5.20;;;;;;;23.29;22.37;92315.06;5073080;28;20044;-66
2022/03/15 09:10:07;;;;;;;10.65;6.80;;;;;;;23.07;21.24;92307.56;5072987;28;20136;-66
2022/03/15 09:12:32;;;;;;;17.63;5.88;;;;;;;22.75;22.42;92306.78;5055078;28;20041;-65
2022/03/15 09:14:58;;;;;;;11.40;9.82;;;;;;;21.14;22.59;92302.22;5052628;28;20426;-65
2022/03/15 09:17:24;;;;;;;9.75;6.30;;;;;;;20.39;24.45;92309.81;5052366;28;20167;-65
2022/03/15 09:19:51;;;;;;;26.75;14.95;;;;;;;19.78;24.88;92304.22;5051393;28;20033;-65
2022/03/15 09:22:17;;;;;;;23.50;11.52;;;;;;;20.46;25.13;92301.97;5052397;28;20041;-65
2022/03/15 09:24:42;;;;;;;41.15;13.35;;;;;;;20.78;25.16;92297.59;5052139;28;20041;-65
2022/03/15 09:27:08;;;;;;;30.45;13.02;;;;;;;20.19;25.29;92299.84;5051998;28;20443;-65
2022/03/15 09:29:34;;;;;;;14.90;7.43;;;;;;;19.99;24.53;92294.16;5052306;28;20144;-66
2022/03/15 09:31:59;;;;;;;23.80;10.95;;;;;;;20.98;26.66;92293.22;5052163;28;20137;-65
2022/03/15 09:34:26;;;;;;;21.70;9.43;;;;;;;21.34;24.55;92291.66;5052360;28;20040;-65
2022/03/15 09:36:51;;;;;;;15.05;9.50;;;;;;;22.45;22.52;92284.69;5052062;28;20509;-65
2022/03/15 09:39:18;;;;;;;15.52;8.50;;;;;;;22.32;23.47;92284.75;5051186;28;20044;-65
2022/03/15 09:41:49;;;;;;;11.90;6.40;;;;;;;21.09;22.69;92283.50;5051670;28;20083;-65
2022/03/15 09:44:17;;;;;;;30.55;10.57;;;;;;;21.15;25.27;92286.78;5051981;28;20528;-65
2022/03/15 09:46:50;;;;;;;11.32;6.57;;;;;;;22.17;23.09;92279.31;5052160;28;20572;-65
2022/03/15 09:49:18;;;;;;;19.90;9.27;;;;;;;23.18;21.99;92279.50;5052066;28;20047;-68
2022/03/15 09:51:47;;;;;;;6.95;4.75;;;;;;;21.00;24.50;92274.75;5051961;28;20041;-65
2022/03/15 09:54:13;;;;;;;9.73;7.03;;;;;;;21.37;21.98;92266.59;5051899;28;20033;-66
2022/03/15 09:56:39;;;;;;;13.10;6.05;;;;;;;20.24;22.97;92264.53;5051774;28;20045;-67
2022/03/15 09:59:16;;;;;;;6.35;5.10;;;;;;;22.10;22.52;92258.22;5052133;28;20033;-67
2022/03/15 10:01:50;;;;;;;12.10;5.97;;;;;;;23.17;22.36;92258.16;5051739;28;20548;-65
2022/03/15 10:04:16;;;;;;;10.60;5.18;;;;;;;21.65;23.33;92262.00;5051730;28;20091;-65
2022/03/15 10:06:42;;;;;;;9.95;5.70;;;;;;;21.49;22.98;92261.16;5051846;28;20071;-64
2022/03/15 10:09:08;;;;;;;7.30;4.07;;;;;;;21.32;22.24;92259.50;5051907;28;20040;-66
2022/03/15 10:11:35;;;;;;;13.82;7.40;;;;;;;21.88;25.51;92259.53;5051014;28;20143;-66
2022/03/15 10:14:01;;;;;;;5.43;4.00;;;;;;;20.98;23.31;92252.63;5051308;28;20041;-64
2022/03/15 10:16:40;;;;;;;11.63;6.18;;;;;;;20.60;25.02;92258.41;5051151;28;20040;-66
2022/03/15 10:19:10;;;;;;;9.57;5.45;;;;;;;21.21;21.65;92250.25;5051422;28;20040;-64
2022/03/15 10:21:40;;;;;;;9.85;4.72;;;;;;;20.09;23.21;92246.25;5051315;28;20505;-66
2022/03/15 10:24:07;;;;;;;11.35;8.90;;;;;;;20.29;22.85;92234.56;5051251;28;20033;-65
2022/03/15 10:26:37;;;;;;;10.18;4.03;;;;;;;18.83;25.71;92243.63;5050828;28;20114;-65
2022/03/15 10:29:03;;;;;;;13.00;10.20;;;;;;;19.47;24.47;92244.44;5051263;28;20080;-66
2022/03/15 10:31:29;;;;;;;10.40;7.50;;;;;;;19.87;25.66;92242.78;5051214;28;20490;-66
2022/03/15 10:34:00;;;;;;;16.08;10.65;;;;;;;21.94;23.08;92233.00;5051216;28;20495;-66
2022/03/15 10:36:27;;;;;;;14.18;9.75;;;;;;;21.27;21.74;92239.97;5051366;28;20119;-65
2022/03/15 10:38:52;;;;;;;13.57;8.82;;;;;;;21.68;25.44;92231.50;5051264;28;20636;-66
2022/03/15 10:41:20;;;;;;;6.93;4.18;;;;;;;20.82;22.25;92213.88;5050963;28;20131;-66
2022/03/15 10:43:53;;;;;;;6.47;4.25;;;;;;;19.34;22.50;92236.28;5051129;28;20037;-66
2022/03/15 10:46:24;;;;;;;4.93;3.67;;;;;;;21.15;23.04;92228.03;5051040;28;20053;-66
2022/03/15 10:49:00;;;;;;;7.45;5.60;;;;;;;21.06;23.40;92232.78;5051102;28;20075;-66
2022/03/15 10:51:26;;;;;;;17.55;7.70;;;;;;;21.09;22.16;92234.81;5050714;28;20108;-66
2022/03/15 10:54:00;;;;;;;5.47;4.35;;;;;;;21.51;21.46;92232.59;5050856;28;20529;-66
2022/03/15 10:56:26;;;;;;;5.18;4.40;;;;;;;22.08;22.81;92217.09;5050356;28;20115;-65
2022/03/15 10:58:59;;;;;;;18.27;10.85;;;;;;;21.07;22.25;92212.72;5050882;28;20125;-65
2022/03/15 11:01:25;;;;;;;;;;;;;;;19.13;21.38;92211.22;5051349;28;20064;-66
2022/03/15 11:04:03;;;;;;;73.68;43.28;;;;;;;20.55;22.90;92205.34;5050510;28;19913;-66
2022/03/15 11:06:39;;;;;;;19.52;9.45;;;;;;;20.85;22.03;92205.09;5050648;28;20056;-66
2022/03/15 11:09:35;;;;;;;23.33;13.85;;;;;;;22.32;21.87;92203.41;5050524;28;20029;-66
2022/03/15 11:12:08;;;;;;;19.00;12.25;;;;;;;21.88;20.40;92196.44;5045678;28;20473;-65
2022/03/15 11:14:47;;;;;;;10.38;4.10;;;;;;;20.86;21.97;92193.16;5050787;28;20045;-66
2022/03/15 11:17:19;;;;;;;6.32;4.18;;;;;;;21.57;20.67;92189.78;5050379;28;20072;-66
2022/03/15 11:19:52;;;;;;;13.98;6.97;;;;;;;19.85;24.24;92182.94;5050675;28;20541;-66
2022/03/15 11:22:21;;;;;;;11.45;6.53;;;;;;;18.56;27.54;92180.16;5054682;28;20059;-64
2022/03/15 11:25:08;;;;;;;73.70;49.08;;;;;;;17.06;23.75;92175.09;5067448;28;20056;-63
2022/03/15 11:27:37;;;;;;;13.75;7.00;;;;;;;17.95;23.85;92176.97;5070176;28;20028;-65
2022/03/15 11:30:06;;;;;;;6.03;4.35;;;;;;;17.27;25.11;92175.22;5070096;28;20028;-64